Time;durP1;ratioP1;P1;durP2;ratioP2;P2;SDS_P1;SDS_P2;PMS_P1;PMS_P2;Temp;Humidity;BMP_temperature;BMP_pressure;BME280_temperature;BME280_humidity;BME280_pressure;Samples;Min_cycle;Max_cycle;Signal;HPM_P1;HPM_P2
2022/01/30 00:04:51;;;;;;;52.05;31.30;;;4.70;81.20;;;;;;10773798;32;20012;-73
2022/01/30 00:11:00;;;;;;;45.15;30.15;;;4.60;81.10;;;;;;10751711;33;20370;-73
2022/01/30 00:17:24;;;;;;;46.78;32.75;;;4.60;81.00;;;;;;10751984;33;20029;-72
2022/01/30 00:23:28;;;;;;;36.85;26.02;;;4.50;80.90;;;;;;10751815;33;20055;-72
2022/01/30 00:29:52;;;;;;;45.42;34.35;;;4.50;80.80;;;;;;10751713;33;20025;-72
2022/01/30 00:35:54;;;;;;;46.15;32.28;;;4.50;80.90;;;;;;10751449;33;20029;-72
2022/01/30 00:41:55;;;;;;;51.67;34.28;;;4.40;80.80;;;;;;10387956;33;12431103;-72
2022/01/30 00:47:58;;;;;;;56.67;39.17;;;4.40;80.90;;;;;;10826432;33;20055;-72
2022/01/30 00:54:00;;;;;;;55.95;34.35;;;4.20;80.80;;;;;;10826350;33;20427;-72
2022/01/30 01:00:02;;;;;;;42.62;31.27;;;4.30;80.70;;;;;;10821365;33;20062;-71
2022/01/30 01:06:05;;;;;;;46.13;33.33;;;4.20;80.70;;;;;;10821870;33;20341;-74
2022/01/30 01:25:38;;;;;;;39.35;28.00;;;4.20;80.90;;;;;;10753858;33;20060;-71
2022/01/30 01:31:40;;;;;;;37.17;26.60;;;4.00;80.90;;;;;;10756720;33;20020;-70
2022/01/30 01:37:42;;;;;;;47.42;32.83;;;3.90;81.00;;;;;;10756658;33;20037;-71
2022/01/30 01:43:44;;;;;;;44.20;28.15;;;3.90;81.00;;;;;;10759806;27;20033;-74
2022/01/30 01:50:05;;;;;;;39.50;29.67;;;3.80;80.90;;;;;;10805759;32;20025;-74
2022/01/30 01:56:08;;;;;;;50.92;37.90;;;3.80;81.00;;;;;;10751827;33;20037;-74
2022/01/30 02:02:10;;;;;;;42.85;30.10;;;3.80;80.80;;;;;;10751782;33;20028;-74
2022/01/30 02:14:48;;;;;;;37.92;26.65;;;3.70;80.80;;;;;;10755496;33;20055;-74
2022/01/30 02:27:46;;;;;;;43.95;30.40;;;3.70;80.80;;;;;;10831354;32;20052;-74
2022/01/30 02:33:55;;;;;;;55.47;37.55;;;3.70;80.70;;;;;;10794080;33;20040;-74
2022/01/30 02:39:58;;;;;;;51.88;36.38;;;3.70;80.60;;;;;;10793219;32;20029;-74
2022/01/30 02:52:11;;;;;;;43.33;32.10;;;3.70;80.60;;;;;;10793537;32;20398;-74
2022/01/30 02:58:17;;;;;;;73.30;41.83;;;3.70;80.70;;;;;;10793083;32;20043;-73
2022/01/30 03:04:19;;;;;;;48.35;30.35;;;3.60;80.80;;;;;;10864792;32;20019;-73
2022/01/30 03:10:21;;;;;;;44.53;31.62;;;3.60;80.80;;;;;;10781531;32;20021;-73
2022/01/30 03:16:24;;;;;;;48.55;35.20;;;3.40;80.90;;;;;;10753831;33;20049;-74
2022/01/30 03:22:28;;;;;;;38.15;27.83;;;3.40;80.80;;;;;;10753450;33;20029;-74
2022/01/30 03:28:32;;;;;;;56.85;35.92;;;3.40;80.60;;;;;;10803900;32;20051;-74
2022/01/30 03:34:37;;;;;;;61.15;42.08;;;3.30;80.70;;;;;;10753255;33;20020;-73
2022/01/30 03:40:39;;;;;;;39.60;27.87;;;3.20;80.80;;;;;;10752880;33;20029;-74
2022/01/30 03:46:41;;;;;;;44.30;32.80;;;3.20;80.80;;;;;;10752415;33;20012;-74
2022/01/30 03:52:43;;;;;;;40.50;29.25;;;3.20;80.80;;;;;;10752753;33;20021;-74
2022/01/30 03:58:46;;;;;;;35.85;27.67;;;3.10;80.90;;;;;;10752425;33;20056;-74
2022/01/30 04:04:49;;;;;;;58.87;43.22;;;3.10;80.80;;;;;;10752545;32;20024;-74
2022/01/30 04:10:51;;;;;;;49.90;34.88;;;3.20;80.90;;;;;;10802286;32;20365;-74
2022/01/30 04:16:54;;;;;;;65.95;44.80;;;3.20;80.80;;;;;;10752147;33;20337;-73
2022/01/30 04:22:57;;;;;;;48.13;32.30;;;3.30;80.90;;;;;;10748014;33;20055;-74
2022/01/30 04:29:21;;;;;;;52.13;34.63;;;3.20;80.80;;;;;;10751878;33;20047;-74
2022/01/30 04:35:27;;;;;;;63.08;40.38;;;3.10;80.90;;;;;;10751683;33;20037;-74
2022/01/30 04:55:32;;;;;;;44.67;29.65;;;3.00;80.90;;;;;;10751966;33;20039;-73
2022/01/30 05:13:28;;;;;;;47.85;31.50;;;2.90;80.70;;;;;;10832969;32;20031;-74
2022/01/30 05:19:31;;;;;;;43.53;31.05;;;2.90;80.90;;;;;;10830254;32;20023;-73
2022/01/30 05:26:06;;;;;;;40.35;27.77;;;2.90;81.00;;;;;;10792743;33;20036;-73
2022/01/30 05:32:10;;;;;;;44.75;31.62;;;2.90;81.10;;;;;;10796761;33;20040;-74
2022/01/30 05:38:14;;;;;;;52.80;35.08;;;3.00;80.90;;;;;;10794598;32;20028;-74
2022/01/30 05:44:21;;;;;;;41.80;30.88;;;2.70;81.00;;;;;;10854220;32;20043;-73
2022/01/30 05:50:55;;;;;;;35.35;27.80;;;2.60;81.30;;;;;;10857580;32;20024;-74
2022/01/30 05:57:03;;;;;;;35.97;24.27;;;2.70;81.00;;;;;;10771202;32;20333;-74
2022/01/30 06:03:05;;;;;;;43.33;30.37;;;2.60;81.00;;;;;;10756036;33;20306;-73
2022/01/30 06:15:19;;;;;;;38.05;24.90;;;2.50;81.10;;;;;;10755617;33;20052;-74
2022/01/30 06:21:22;;;;;;;36.63;23.73;;;2.30;81.30;;;;;;10755267;33;20025;-74
2022/01/30 06:27:57;;;;;;;40.25;25.50;;;2.20;81.50;;;;;;10864463;32;20542;-73
2022/01/30 06:34:04;;;;;;;34.35;23.67;;;2.40;81.50;;;;;;10866967;32;20397;-74
2022/01/30 06:40:11;;;;;;;56.70;32.17;;;2.60;81.30;;;;;;10866788;32;20020;-74
2022/01/30 06:46:30;;;;;;;34.55;24.55;;;2.70;81.20;;;;;;10866766;32;20020;-74
2022/01/30 06:52:51;;;;;;;46.55;28.60;;;2.70;81.00;;;;;;10840745;32;20016;-73
2022/01/30 06:58:58;;;;;;;42.28;27.33;;;2.70;80.90;;;;;;10828905;32;20415;-74
2022/01/30 07:05:04;;;;;;;38.38;26.40;;;2.80;81.10;;;;;;10741958;32;20051;-74
2022/01/30 07:11:10;;;;;;;34.50;24.12;;;2.90;81.00;;;;;;10719009;33;20025;-73
2022/01/30 07:17:21;;;;;;;38.22;27.65;;;2.90;80.90;;;;;;10717691;33;20052;-74
2022/01/30 07:23:23;;;;;;;36.30;23.55;;;2.90;80.70;;;;;;10715665;33;20028;-74
2022/01/30 07:30:18;;;;;;;42.28;28.50;;;3.00;81.00;;;;;;10716070;33;20124;-73
2022/01/30 07:36:56;;;;;;;36.78;24.95;;;3.10;81.20;;;;;;10713545;33;20029;-73
2022/01/30 07:43:21;;;;;;;38.90;24.08;;;3.20;81.20;;;;;;10713322;33;20037;-73
2022/01/30 07:49:41;;;;;;;35.42;23.23;;;3.20;81.30;;;;;;10717990;32;20020;-74
2022/01/30 07:55:44;;;;;;;31.77;21.30;;;3.20;81.40;;;;;;10712005;33;20055;-73
2022/01/30 08:01:46;;;;;;;43.67;24.75;;;3.20;81.60;;;;;;10778483;32;20082;-71
2022/01/30 08:07:48;;;;;;;46.60;28.23;;;3.30;81.60;;;;;;10713113;33;20067;-71
2022/01/30 08:13:51;;;;;;;41.10;24.63;;;3.40;82.00;;;;;;10778086;32;20048;-71
2022/01/30 08:19:53;;;;;;;31.90;20.60;;;3.40;82.00;;;;;;10715558;33;20029;-71
2022/01/30 08:25:55;;;;;;;29.77;19.85;;;3.40;81.90;;;;;;10715492;33;20017;-71
2022/01/30 08:31:58;;;;;;;35.28;21.80;;;3.50;82.00;;;;;;10715412;33;20033;-71
2022/01/30 08:38:00;;;;;;;38.25;24.48;;;3.50;82.20;;;;;;10727265;32;20054;-71
2022/01/30 08:44:03;;;;;;;25.92;19.45;;;3.60;82.40;;;;;;10751352;33;20040;-71
2022/01/30 08:50:10;;;;;;;30.20;19.83;;;3.70;82.30;;;;;;10751227;33;20329;-71
2022/01/30 08:56:14;;;;;;;48.95;30.60;;;3.80;82.40;;;;;;10751080;33;20397;-71
2022/01/30 09:02:18;;;;;;;30.50;20.42;;;3.80;82.30;;;;;;10751014;33;20064;-70
2022/01/30 09:08:20;;;;;;;38.38;22.00;;;3.70;82.20;;;;;;10750664;33;20029;-71
2022/01/30 09:14:23;;;;;;;33.90;21.75;;;3.90;82.20;;;;;;10747623;33;20029;-71
2022/01/30 09:20:28;;;;;;;39.47;24.37;;;4.00;82.10;;;;;;10750383;33;20056;-74
2022/01/30 09:26:30;;;;;;;35.67;20.98;;;4.00;81.50;;;;;;10800325;32;20024;-73
2022/01/30 09:32:36;;;;;;;33.25;22.77;;;4.10;81.80;;;;;;10750578;33;20389;-74
2022/01/30 09:38:38;;;;;;;31.17;19.12;;;4.20;82.00;;;;;;10750255;33;20377;-73
2022/01/30 09:44:41;;;;;;;32.45;19.77;;;4.30;82.10;;;;;;10753645;27;20047;-74
2022/01/30 09:50:43;;;;;;;30.42;20.52;;;4.40;82.00;;;;;;10756103;33;20020;-73
2022/01/30 09:56:45;;;;;;;40.90;27.27;;;4.60;82.00;;;;;;10756032;33;20012;-73
2022/01/30 10:02:51;;;;;;;40.08;26.27;;;4.70;81.90;;;;;;10751731;33;20056;-73
2022/01/30 10:08:56;;;;;;;53.50;32.60;;;4.80;81.70;;;;;;10801721;32;20012;-74
2022/01/30 10:15:22;;;;;;;48.80;27.95;;;4.90;81.30;;;;;;10805733;32;20048;-74
2022/01/30 10:21:25;;;;;;;31.65;21.87;;;5.10;80.60;;;;;;10755111;33;20341;-73
2022/01/30 10:27:28;;;;;;;35.28;24.25;;;5.20;81.00;;;;;;10755181;33;20053;-73
2022/01/30 10:33:45;;;;;;;38.65;24.65;;;5.40;80.90;;;;;;10754900;33;20299;-74
2022/01/30 10:40:11;;;;;;;33.72;19.30;;;5.50;80.50;;;;;;10754728;33;20025;-74
2022/01/30 10:46:18;;;;;;;28.60;17.40;;;5.70;80.20;;;;;;10750478;33;20047;-73
2022/01/30 10:52:22;;;;;;;34.97;21.37;;;5.80;80.20;;;;;;10754356;33;20017;-74
2022/01/30 10:58:25;;;;;;;28.27;18.90;;;6.00;79.80;;;;;;10754256;33;20013;-73
2022/01/30 11:04:29;;;;;;;31.02;21.05;;;6.20;79.70;;;;;;10753895;33;20083;-73
2022/01/30 11:10:33;;;;;;;27.17;17.95;;;6.30;79.80;;;;;;10753521;33;20051;-74
2022/01/30 11:23:01;;;;;;;28.87;18.87;;;6.90;79.30;;;;;;10750437;33;20051;-74
2022/01/30 11:29:03;;;;;;;37.47;21.80;;;7.10;78.40;;;;;;10753519;33;20329;-74
2022/01/30 11:35:05;;;;;;;32.58;16.12;;;7.30;77.90;;;;;;10803223;32;20043;-74
2022/01/30 11:41:17;;;;;;;35.15;22.05;;;7.60;77.20;;;;;;10798889;32;20029;-72
2022/01/30 11:47:20;;;;;;;35.33;22.50;;;7.80;76.60;;;;;;10752946;33;20017;-74
2022/01/30 11:53:29;;;;;;;40.00;25.85;;;8.10;76.30;;;;;;10749925;33;20028;-74
2022/01/30 11:59:39;;;;;;;42.33;29.33;;;8.30;75.80;;;;;;10748408;33;20055;-73
2022/01/30 12:05:42;;;;;;;36.30;22.65;;;8.40;75.40;;;;;;10749453;33;20401;-73
2022/01/30 12:11:47;;;;;;;33.08;21.02;;;8.50;75.10;;;;;;10752254;33;20055;-71
2022/01/30 12:17:50;;;;;;;33.58;20.45;;;8.60;74.70;;;;;;10751955;33;20020;-72
2022/01/30 12:23:52;;;;;;;31.42;21.65;;;8.70;74.50;;;;;;10751833;33;20060;-73
2022/01/30 12:29:55;;;;;;;37.97;21.45;;;8.70;74.20;;;;;;10751316;33;20025;-73
2022/01/30 12:35:59;;;;;;;35.28;20.42;;;8.80;74.00;;;;;;10748145;33;20064;-73
2022/01/30 12:42:01;;;;;;;39.50;24.25;;;8.90;73.80;;;;;;10751428;33;20020;-72
2022/01/30 12:48:08;;;;;;;37.72;24.77;;;8.90;73.50;;;;;;10751288;33;20056;-71
2022/01/30 12:54:11;;;;;;;38.90;25.10;;;8.90;72.90;;;;;;10750575;33;20024;-72
2022/01/30 13:00:15;;;;;;;39.58;29.25;;;8.80;72.90;;;;;;10750914;33;20413;-71
2022/01/30 13:06:31;;;;;;;37.22;26.15;;;8.90;72.70;;;;;;10750752;33;20398;-71
2022/01/30 13:12:33;;;;;;;29.95;19.73;;;8.90;72.30;;;;;;10750992;33;20047;-72
2022/01/30 13:18:43;;;;;;;46.15;30.20;;;8.90;71.70;;;;;;10751987;33;20412;-72
2022/01/30 13:24:52;;;;;;;;;;;9.00;71.80;;;;;;10756522;33;20024;-71
2022/01/30 13:30:54;;;;;;;37.40;24.75;;;9.20;71.40;;;;;;10757471;33;19947;-72
2022/01/30 13:37:04;;;;;;;45.65;33.03;;;9.30;71.00;;;;;;10756289;33;20020;-71
2022/01/30 13:43:16;;;;;;;45.90;29.60;;;9.40;70.40;;;;;;10755213;33;20036;-71
2022/01/30 13:49:18;;;;;;;43.20;33.30;;;9.40;70.90;;;;;;10756396;33;20012;-71
2022/01/30 13:55:20;;;;;;;45.35;26.33;;;9.40;70.40;;;;;;10751901;33;20029;-71
2022/01/30 14:01:30;;;;;;;37.75;23.15;;;9.40;70.20;;;;;;10755671;33;20029;-72
2022/01/30 14:07:32;;;;;;;42.62;25.37;;;9.30;70.50;;;;;;10755469;33;20025;-71
2022/01/30 14:13:42;;;;;;;41.60;25.12;;;9.50;70.40;;;;;;10804124;32;20020;-71
2022/01/30 14:19:52;;;;;;;55.67;32.30;;;9.50;69.80;;;;;;10755323;33;20025;-71
2022/01/30 14:25:54;;;;;;;40.53;26.45;;;9.60;69.50;;;;;;10755294;33;20008;-71
2022/01/30 14:32:07;;;;;;;34.38;22.62;;;9.60;69.60;;;;;;10754698;33;20048;-71
2022/01/30 14:38:10;;;;;;;33.85;19.65;;;9.70;69.30;;;;;;10755008;33;20321;-71
2022/01/30 14:44:13;;;;;;;30.58;18.55;;;10.00;68.90;;;;;;10754042;33;20409;-71
2022/01/30 14:50:15;;;;;;;29.52;19.85;;;9.90;69.10;;;;;;10753577;33;20063;-71
2022/01/30 14:56:17;;;;;;;32.72;20.92;;;9.90;68.80;;;;;;10754308;33;20087;-72
2022/01/30 15:02:19;;;;;;;27.75;15.93;;;10.30;67.70;;;;;;10751657;33;20051;-70
2022/01/30 15:08:21;;;;;;;33.85;23.15;;;10.80;67.10;;;;;;10753273;33;20029;-70
2022/01/30 15:14:33;;;;;;;38.70;23.38;;;11.00;66.40;;;;;;10750603;33;20415;-70
2022/01/30 15:20:36;;;;;;;34.08;19.65;;;11.10;66.00;;;;;;10752927;33;20055;-70
2022/01/30 15:26:39;;;;;;;27.23;16.02;;;11.50;65.80;;;;;;10749473;33;20043;-70
2022/01/30 15:32:41;;;;;;;23.48;15.88;;;11.60;65.80;;;;;;10753387;33;20020;-72
2022/01/30 15:38:44;;;;;;;23.35;14.20;;;11.40;66.40;;;;;;10803103;32;20017;-71
2022/01/30 15:50:54;;;;;;;20.92;12.82;;;10.70;68.10;;;;;;10752924;33;20039;-72
2022/01/30 15:56:56;;;;;;;20.27;12.52;;;10.10;69.00;;;;;;10802725;32;20039;-72
2022/01/30 16:02:58;;;;;;;20.37;9.80;;;9.60;69.90;;;;;;10801619;32;20381;-71
2022/01/30 16:21:32;;;;;;;22.98;15.00;;;8.30;71.80;;;;;;10749486;33;20041;-71
2022/01/30 16:27:34;;;;;;;16.85;11.55;;;8.00;72.10;;;;;;10750320;33;20059;-72
2022/01/30 16:33:38;;;;;;;17.27;8.65;;;7.80;72.30;;;;;;10751597;33;20051;-72
2022/01/30 16:39:40;;;;;;;27.02;16.27;;;7.60;72.70;;;;;;10813259;32;20020;-71
2022/01/30 16:45:48;;;;;;;13.32;8.07;;;7.40;73.10;;;;;;10751298;33;20398;-72
2022/01/30 16:51:51;;;;;;;14.68;8.52;;;7.20;73.50;;;;;;10751919;33;20055;-72
2022/01/30 16:57:53;;;;;;;14.48;9.48;;;7.20;73.80;;;;;;10757779;33;20021;-72
2022/01/30 17:03:55;;;;;;;16.40;9.82;;;7.00;74.30;;;;;;10755508;33;20437;-72
2022/01/30 17:09:58;;;;;;;29.95;15.93;;;6.90;74.60;;;;;;10820173;32;20068;-72
2022/01/30 17:16:01;;;;;;;31.58;19.95;;;6.80;74.80;;;;;;10754720;33;20013;-72
2022/01/30 17:22:03;;;;;;;17.15;10.95;;;6.60;75.40;;;;;;10807367;32;20412;-72
2022/01/30 17:28:08;;;;;;;22.50;13.07;;;6.50;75.70;;;;;;10756950;33;20047;-72
2022/01/30 17:34:10;;;;;;;20.00;13.43;;;6.50;76.00;;;;;;10755853;33;20025;-72
2022/01/30 17:40:13;;;;;;;21.37;13.27;;;6.40;76.10;;;;;;10753690;33;20025;-72
2022/01/30 17:46:16;;;;;;;23.75;15.60;;;6.40;76.20;;;;;;10758791;27;20357;-72
2022/01/30 17:52:18;;;;;;;20.90;15.48;;;6.20;76.40;;;;;;10751874;33;20094;-72
2022/01/30 17:58:20;;;;;;;27.70;15.63;;;6.20;76.80;;;;;;10756047;33;20016;-72
2022/01/30 18:04:24;;;;;;;29.35;19.83;;;6.10;77.00;;;;;;10755140;33;20441;-72
2022/01/30 18:10:26;;;;;;;41.37;24.45;;;6.10;77.10;;;;;;10753979;33;20044;-72
2022/01/30 18:16:28;;;;;;;36.08;22.48;;;6.00;77.40;;;;;;10753397;33;20141;-72
2022/01/30 18:22:30;;;;;;;28.08;16.83;;;5.90;77.60;;;;;;10750774;33;20062;-72
2022/01/30 18:28:33;;;;;;;33.17;22.23;;;5.90;77.60;;;;;;10755338;33;20013;-72
2022/01/30 18:34:35;;;;;;;28.70;17.62;;;5.80;77.80;;;;;;10805346;32;20043;-72
2022/01/30 18:40:45;;;;;;;41.88;26.37;;;5.80;77.80;;;;;;10801984;32;20055;-72
2022/01/30 18:46:48;;;;;;;39.75;25.62;;;5.70;77.90;;;;;;10754754;33;20021;-72
2022/01/30 18:52:50;;;;;;;47.50;31.58;;;5.70;78.20;;;;;;10752883;33;20055;-72
2022/01/30 18:58:52;;;;;;;37.00;24.27;;;5.70;78.40;;;;;;10812872;32;20427;-73
2022/01/30 19:04:55;;;;;;;40.85;28.23;;;5.60;78.80;;;;;;10753531;33;20055;-72
2022/01/30 19:10:58;;;;;;;33.38;23.30;;;5.50;78.90;;;;;;10754117;33;20051;-72
2022/01/30 19:17:00;;;;;;;37.85;22.90;;;5.40;78.90;;;;;;10753851;33;20025;-72
2022/01/30 19:23:03;;;;;;;25.95;17.60;;;5.30;78.90;;;;;;10752826;33;20025;-72
2022/01/30 19:29:06;;;;;;;32.38;23.90;;;5.20;78.70;;;;;;10753412;33;20071;-72
2022/01/30 19:35:08;;;;;;;30.35;24.15;;;5.20;78.90;;;;;;10753350;33;20079;-71
2022/01/30 19:41:12;;;;;;;34.13;21.77;;;5.20;78.90;;;;;;10753084;33;20032;-70
2022/01/30 19:47:16;;;;;;;43.78;32.42;;;5.10;78.80;;;;;;10802059;32;20029;-70
2022/01/30 19:53:18;;;;;;;40.03;28.55;;;5.20;78.80;;;;;;10749553;33;20440;-70
2022/01/30 19:59:20;;;;;;;55.95;39.55;;;5.10;78.90;;;;;;10751448;33;20051;-70
2022/01/30 20:05:22;;;;;;;51.80;37.45;;;5.00;79.00;;;;;;10752057;33;20037;-70
2022/01/30 20:11:24;;;;;;;52.15;36.83;;;4.90;79.00;;;;;;10748132;33;20052;-70
2022/01/30 20:17:27;;;;;;;37.92;27.33;;;4.90;79.10;;;;;;10748351;33;20051;-70
2022/01/30 20:23:29;;;;;;;46.80;30.27;;;4.90;79.00;;;;;;10752092;33;20047;-71
2022/01/30 20:29:32;;;;;;;36.92;25.80;;;4.70;79.20;;;;;;10751434;33;20055;-69
2022/01/30 20:35:34;;;;;;;33.22;23.12;;;4.70;79.40;;;;;;10750304;33;20067;-69
2022/01/30 20:41:36;;;;;;;25.98;18.30;;;4.70;79.20;;;;;;10748895;33;20055;-71
2022/01/30 20:47:42;;;;;;;31.35;20.88;;;4.50;79.40;;;;;;10751413;33;20110;-71
2022/01/30 20:53:45;;;;;;;31.90;25.15;;;4.40;79.50;;;;;;10751485;33;20017;-71
2022/01/30 20:59:48;;;;;;;44.58;30.17;;;4.40;79.40;;;;;;10800444;32;20337;-69
2022/01/30 21:05:54;;;;;;;43.83;30.55;;;4.40;79.50;;;;;;10751028;33;20020;-69
2022/01/30 21:11:59;;;;;;;46.92;33.58;;;4.40;79.60;;;;;;10750840;33;20385;-69
2022/01/30 21:18:01;;;;;;;40.63;32.72;;;4.40;79.30;;;;;;10750427;33;20087;-72
2022/01/30 21:24:05;;;;;;;45.15;34.00;;;4.10;79.70;;;;;;10750621;32;20059;-72
2022/01/30 21:30:08;;;;;;;42.17;30.30;;;4.20;79.80;;;;;;10750594;33;20329;-71
2022/01/30 21:36:11;;;;;;;38.55;28.02;;;4.20;79.90;;;;;;10750437;33;20081;-71
2022/01/30 21:42:13;;;;;;;43.22;29.25;;;4.30;79.90;;;;;;10754454;33;20024;-72
2022/01/30 21:48:16;;;;;;;37.13;26.98;;;4.30;79.80;;;;;;10756510;33;20020;-70
2022/01/30 21:54:21;;;;;;;43.63;30.67;;;4.20;79.80;;;;;;10756291;33;20052;-71
2022/01/30 22:00:23;;;;;;;53.15;29.98;;;4.20;80.00;;;;;;10755881;33;20052;-71
2022/01/30 22:06:25;;;;;;;41.03;31.00;;;4.20;80.10;;;;;;10806397;32;20040;-69
2022/01/30 22:12:46;;;;;;;48.22;36.03;;;4.10;80.20;;;;;;10755757;33;20048;-71
2022/01/30 22:18:49;;;;;;;49.15;37.58;;;4.10;80.20;;;;;;10755486;33;20078;-73
2022/01/30 22:24:51;;;;;;;45.65;31.77;;;4.00;80.30;;;;;;10755336;33;20025;-71
2022/01/30 22:30:54;;;;;;;50.80;31.42;;;4.00;80.30;;;;;;10755338;33;20063;-73
2022/01/30 22:36:57;;;;;;;48.05;31.52;;;4.00;80.20;;;;;;10755211;33;20417;-71
2022/01/30 22:43:00;;;;;;;59.05;37.90;;;3.90;80.40;;;;;;10754951;33;20059;-71
2022/01/30 22:49:02;;;;;;;46.15;32.92;;;4.00;80.50;;;;;;10804948;32;20424;-70
2022/01/30 22:55:06;;;;;;;46.58;33.15;;;4.00;80.70;;;;;;10754601;33;20017;-71
2022/01/30 23:01:08;;;;;;;59.72;43.85;;;4.00;80.80;;;;;;10754415;33;20033;-71
2022/01/30 23:07:11;;;;;;;61.10;42.67;;;3.80;80.80;;;;;;10751426;33;20016;-71
2022/01/30 23:13:13;;;;;;;46.20;31.27;;;3.80;80.60;;;;;;10754062;33;20037;-74
2022/01/30 23:19:15;;;;;;;53.33;37.22;;;3.80;80.80;;;;;;10752786;33;20432;-73
2022/01/30 23:25:18;;;;;;;58.50;36.70;;;3.70;80.80;;;;;;10753693;33;20016;-74
2022/01/30 23:31:21;;;;;;;42.97;27.95;;;3.60;80.90;;;;;;10753594;33;20017;-71
2022/01/30 23:37:24;;;;;;;49.47;34.33;;;3.60;80.90;;;;;;10753459;33;20047;-73
2022/01/30 23:43:27;;;;;;;58.17;42.62;;;3.50;80.10;;;;;;10753202;33;20017;-73
2022/01/30 23:49:30;;;;;;;44.92;32.10;;;3.40;80.80;;;;;;10752999;33;20057;-73
2022/01/30 23:55:33;;;;;;;57.67;38.00;;;3.40;81.20;;;;;;10751347;33;20021;-73
